Lexington, IL (61753)

4:54 AM CDT on August 27, 2016 (GMT -0500)
Lake Bloomington | | Change Station

Elev 748 ft 40.65 °N, 88.93 °W | Updated 11 seconds ago

Heavy Rain
Heavy Rain
71.6 °F
Feels Like 71.6 °F
N
0.0
Wind Variable Wind from SW
Gusts 0.0 mph

Today
High -- | Low -- °F
--% Chance of Precip.
Yesterday
High -- | Low -- °F
Precip. -- in
Pressure 30.06 in
Visibility 7.0 miles
Clouds Few 400 ft
Mostly Cloudy 2600 ft
Overcast 3200 ft
Dew Point 70 °F
Humidity 96%
Rainfall 0.14 in
Snow Depth Not available.
6:17 AM 7:34 PM
Waning Crescent, 26% visible
SPECI KBMI 270941Z AUTO 16014G19KT 7SM VCTS +RA FEW004 BKN026 OVC032 22/21 A3006 RMK AO2 TSB29RAB25
Pressure 30.06 in
Visibility 7.0 miles
Clouds Few 400 ft
Mostly Cloudy 2600 ft
Overcast 3200 ft
Dew Point 70 °F
Humidity 96%
Rainfall 0.14 in
Snow Depth Not available.
6:17 AM 7:34 PM
Waning Crescent, 26% visible
SPECI KBMI 270941Z AUTO 16014G19KT 7SM VCTS +RA FEW004 BKN026 OVC032 22/21 A3006 RMK AO2 TSB29RAB25

10-Day Weather Forecast

Almanac

Astronomy

Aug. 27, 2016 Rise Set
Actual Time
Civil Twilight
Nautical Twilight
Astronomical Twilight
Moon
Length of Visible Light
Length of Day
Tomorrow will be .
, % of the Moon is Illuminated

Today's Extremes

State Highs State Lows

Community

WunderPhotos

Upload Photos

1,935,313 photos uploaded!

WunderBlog® & News

Nearby

Air Quality

  Air Quality AQ Index Pollutant
Not available.

Snow Depth

Station Depth Elevation

Earthquake Activity

City Distance Mag. Time & Date
Minimum magnitude displayed is 2.5.

Coastal Water Temperatures

Place Temperature

Stations

Nearby Weather Stations

Station Location Temp. Windchill Dew Point Humidity Wind Precip. Elev Updated Type
                   

Watches & Warnings

There are currently no watches in effect.